createdAt,value
2018-05-15T00:02:31.308Z,99.90
2018-05-15T00:05:04.765Z,99.90
2018-05-15T00:07:33.692Z,99.90
2018-05-15T00:10:05.524Z,99.90
2018-05-15T00:12:37.288Z,99.90
2018-05-15T00:15:08.012Z,99.90
2018-05-15T00:17:49.780Z,99.90
2018-05-15T00:20:18.728Z,99.90
2018-05-15T00:22:46.740Z,99.90
2018-05-15T00:25:25.588Z,99.90
2018-05-15T00:27:58.887Z,99.90
2018-05-15T00:30:43.880Z,99.90
2018-05-15T00:33:11.899Z,99.90
2018-05-15T00:35:43.092Z,99.90
2018-05-15T00:38:23.399Z,99.90
2018-05-15T00:40:55.676Z,99.90
2018-05-15T00:43:32.228Z,99.90
2018-05-15T00:46:00.251Z,99.90
2018-05-15T00:48:41.559Z,99.90
2018-05-15T00:51:20.475Z,99.90
2018-05-15T00:53:50.404Z,99.90
2018-05-15T00:56:23.251Z,99.90
2018-05-15T00:58:52.033Z,99.90
2018-05-15T01:01:25.003Z,99.90
2018-05-15T01:03:53.023Z,99.90
2018-05-15T01:06:24.619Z,99.90
2018-05-15T01:08:52.633Z,99.90
2018-05-15T01:11:27.659Z,99.90
2018-05-15T01:14:02.527Z,99.90
2018-05-15T01:16:31.515Z,99.90
2018-05-15T01:19:00.315Z,99.90
2018-05-15T01:21:28.363Z,99.90
2018-05-15T01:23:56.388Z,99.90
2018-05-15T01:26:29.613Z,99.90
2018-05-15T01:28:58.543Z,99.90
2018-05-15T01:31:29.795Z,99.90
2018-05-15T01:34:01.348Z,99.90
2018-05-15T01:36:29.368Z,99.90
2018-05-15T01:39:00.399Z,99.90
2018-05-15T01:41:34.052Z,99.90
2018-05-15T01:44:18.400Z,99.90
2018-05-15T01:46:46.408Z,99.90
2018-05-15T01:49:14.440Z,99.90
2018-05-15T01:51:43.391Z,99.90
2018-05-15T01:57:28.488Z,99.90
2018-05-15T01:59:58.240Z,99.90
2018-05-15T02:02:26.259Z,99.90
2018-05-15T02:05:07.211Z,99.90
2018-05-15T02:07:38.663Z,99.90
2018-05-15T02:10:19.279Z,99.90
2018-05-15T02:12:53.085Z,99.90
2018-05-15T02:15:23.015Z,99.90
2018-05-15T02:17:54.976Z,99.90
2018-05-15T02:20:35.501Z,99.90
2018-05-15T02:23:21.175Z,99.90
2018-05-15T02:25:51.147Z,99.90
2018-05-15T02:28:28.902Z,99.90
2018-05-15T02:30:56.917Z,99.90
2018-05-15T02:33:25.896Z,99.80
2018-05-15T02:36:02.540Z,99.80
2018-05-15T02:38:30.555Z,99.90
2018-05-15T02:40:58.575Z,99.60
2018-05-15T02:43:38.046Z,99.30
2018-05-15T02:46:09.180Z,99.20
2018-05-15T02:48:37.196Z,99.00
2018-05-15T02:51:09.691Z,99.20
2018-05-15T02:53:37.708Z,99.20
2018-05-15T02:56:22.633Z,99.20
2018-05-15T02:59:00.787Z,99.10
2018-05-15T03:01:30.793Z,98.80
2018-05-15T03:06:56.115Z,98.70
2018-05-15T03:09:35.791Z,98.90
2018-05-15T03:12:10.873Z,98.90
2018-05-15T03:14:52.440Z,98.90
2018-05-15T03:17:25.794Z,99.00
2018-05-15T03:20:20.430Z,99.20
2018-05-15T03:22:49.482Z,99.40
2018-05-15T03:25:37.975Z,99.60
2018-05-15T03:28:13.611Z,99.60
2018-05-15T03:30:43.454Z,99.70
2018-05-15T03:33:11.511Z,99.70
2018-05-15T03:38:52.259Z,99.70
2018-05-15T03:41:33.967Z,99.80
2018-05-15T03:44:05.281Z,99.80
2018-05-15T03:46:35.302Z,99.90
2018-05-15T03:49:15.695Z,99.90
2018-05-15T03:51:44.634Z,99.90
2018-05-15T03:54:17.750Z,99.90
2018-05-15T03:59:48.898Z,99.90
2018-05-15T04:02:41.834Z,99.90
2018-05-15T04:05:22.194Z,99.90
2018-05-15T04:10:56.737Z,99.90
2018-05-15T04:13:25.270Z,99.90
2018-05-15T04:15:54.310Z,99.90
2018-05-15T04:18:24.806Z,99.80
2018-05-15T04:21:04.678Z,99.70
2018-05-15T04:23:34.311Z,99.50
2018-05-15T04:26:06.050Z,99.20
2018-05-15T04:28:41.162Z,99.00
2018-05-15T04:31:20.826Z,98.80
2018-05-15T04:34:10.066Z,98.70
2018-05-15T04:36:38.095Z,98.50
2018-05-15T04:39:06.871Z,97.60
2018-05-15T04:41:34.882Z,97.50
2018-05-15T04:44:06.598Z,97.20
2018-05-15T04:46:36.499Z,96.80
2018-05-15T04:49:18.199Z,95.90
2018-05-15T04:51:46.919Z,95.40
2018-05-15T04:54:14.939Z,95.30
2018-05-15T04:56:49.474Z,94.80
2018-05-15T04:59:17.492Z,94.20
2018-05-15T05:01:50.542Z,94.20
2018-05-15T05:04:22.290Z,94.60
2018-05-15T05:06:50.318Z,94.30
2018-05-15T05:09:19.335Z,94.30
2018-05-15T05:11:48.387Z,94.20
2018-05-15T05:14:16.330Z,94.10
2018-05-15T05:16:47.331Z,94.00
2018-05-15T05:19:15.381Z,93.80
2018-05-15T05:21:43.374Z,93.20
2018-05-15T05:24:13.411Z,92.90
2018-05-15T05:26:43.437Z,92.60
2018-05-15T05:29:15.851Z,92.10
2018-05-15T05:31:50.807Z,92.10
2018-05-15T05:34:32.226Z,91.90
2018-05-15T05:37:02.032Z,91.70
2018-05-15T05:39:36.011Z,91.70
2018-05-15T05:42:15.754Z,91.70
2018-05-15T05:44:47.651Z,91.60
2018-05-15T05:47:18.615Z,92.50
2018-05-15T05:49:46.674Z,93.00
2018-05-15T05:52:14.706Z,92.30
2018-05-15T05:54:42.742Z,90.10
2018-05-15T05:57:10.767Z,89.40
2018-05-15T05:59:45.286Z,88.50
2018-05-15T06:02:27.198Z,88.90
2018-05-15T06:05:00.490Z,90.00
2018-05-15T06:07:29.395Z,90.10
2018-05-15T06:09:58.318Z,90.10
2018-05-15T06:12:26.375Z,89.70
2018-05-15T06:14:56.290Z,90.00
2018-05-15T06:17:35.428Z,89.00
2018-05-15T06:20:05.346Z,88.20
2018-05-15T06:22:33.374Z,85.80
2018-05-15T06:25:11.958Z,85.40
2018-05-15T06:27:40.883Z,85.30
2018-05-15T06:30:11.595Z,82.90
2018-05-15T06:32:39.598Z,82.80
2018-05-15T06:35:07.623Z,78.50
2018-05-15T06:37:35.643Z,78.60
2018-05-15T06:40:04.574Z,77.10
2018-05-15T06:42:37.843Z,76.10
2018-05-15T06:45:14.299Z,75.60
2018-05-15T06:47:46.374Z,75.60
2018-05-15T06:50:16.302Z,73.90
2018-05-15T06:52:52.622Z,73.40
2018-05-15T06:55:23.414Z,71.10
2018-05-15T06:57:55.603Z,71.10
2018-05-15T07:00:24.579Z,71.70
2018-05-15T07:02:57.014Z,72.50
2018-05-15T07:05:25.039Z,73.60
2018-05-15T07:07:54.979Z,74.10
2018-05-15T07:10:27.203Z,71.50
2018-05-15T07:12:56.178Z,68.40
2018-05-15T07:15:27.854Z,64.50
2018-05-15T07:18:03.355Z,63.00
2018-05-15T07:20:32.278Z,58.90
2018-05-15T07:23:01.323Z,58.30
2018-05-15T07:25:30.942Z,56.80
2018-05-15T07:28:00.858Z,57.10
2018-05-15T07:30:30.774Z,55.90
2018-05-15T07:33:00.736Z,55.60
2018-05-15T07:35:36.659Z,56.50
2018-05-15T07:38:23.067Z,55.40
2018-05-15T07:40:51.971Z,55.20
2018-05-15T07:43:26.818Z,54.50
2018-05-15T07:45:54.850Z,51.90
2018-05-15T07:48:23.324Z,50.80
2018-05-15T07:50:56.711Z,50.90
2018-05-15T07:53:29.492Z,50.00
2018-05-15T07:55:59.417Z,48.90
2018-05-15T07:58:29.354Z,48.60
2018-05-15T08:03:56.863Z,46.60
2018-05-15T08:06:31.193Z,43.80
2018-05-15T08:09:00.959Z,43.80
2018-05-15T08:11:29.039Z,43.70
2018-05-15T08:13:57.067Z,44.20
2018-05-15T08:16:29.679Z,44.70
2018-05-15T08:19:04.123Z,44.00
2018-05-15T08:21:38.007Z,43.80
2018-05-15T08:24:10.114Z,42.80
2018-05-15T08:26:38.891Z,41.90
2018-05-15T08:29:10.330Z,41.90
2018-05-15T08:32:03.942Z,42.90
2018-05-15T08:34:37.754Z,43.00
2018-05-15T08:37:11.438Z,41.50
2018-05-15T08:39:52.154Z,41.70
2018-05-15T08:42:21.142Z,41.90
2018-05-15T08:44:49.162Z,41.80
2018-05-15T08:47:18.141Z,40.80
2018-05-15T08:49:51.426Z,41.10
2018-05-15T08:52:29.802Z,41.10
2018-05-15T08:55:03.738Z,41.30
2018-05-15T08:57:52.450Z,42.20
2018-05-15T09:00:20.518Z,41.10
2018-05-15T09:03:04.262Z,41.00
2018-05-15T09:05:40.333Z,41.00
2018-05-15T09:08:25.638Z,39.80
2018-05-15T09:10:54.633Z,39.10
2018-05-15T09:13:33.481Z,37.10
2018-05-15T09:16:06.777Z,36.90
2018-05-15T09:18:52.474Z,37.10
2018-05-15T09:21:25.821Z,35.60
2018-05-15T09:24:05.664Z,33.60
2018-05-15T09:26:33.685Z,32.50
2018-05-15T09:29:02.281Z,32.00
2018-05-15T09:31:30.373Z,31.00
2018-05-15T09:33:58.397Z,31.30
2018-05-15T09:36:38.377Z,32.10
2018-05-15T09:39:07.301Z,36.00
2018-05-15T09:41:35.333Z,35.40
2018-05-15T09:44:04.362Z,34.00
2018-05-15T09:46:37.549Z,34.00
2018-05-15T09:49:12.041Z,34.50
2018-05-15T09:51:40.078Z,36.00
2018-05-15T09:57:16.881Z,37.10
2018-05-15T09:59:52.577Z,37.30
2018-05-15T10:02:20.598Z,37.80
2018-05-15T10:04:55.253Z,38.30
2018-05-15T10:07:23.266Z,38.50
2018-05-15T10:10:16.969Z,38.80
2018-05-15T10:13:04.614Z,39.10
2018-05-15T10:15:39.030Z,37.80
2018-05-15T10:18:32.893Z,37.30
2018-05-15T10:21:14.102Z,35.40
2018-05-15T10:23:47.885Z,35.30
2018-05-15T10:26:20.015Z,35.00
2018-05-15T10:28:54.365Z,35.60
2018-05-15T10:31:23.153Z,36.50
2018-05-15T10:33:52.817Z,36.90
2018-05-15T10:36:39.270Z,36.90
2018-05-15T10:39:18.505Z,37.50
2018-05-15T10:42:01.949Z,35.10
2018-05-15T10:44:36.437Z,33.70
2018-05-15T10:47:05.385Z,34.90
2018-05-15T10:49:37.537Z,35.60
2018-05-15T10:52:29.229Z,32.70
2018-05-15T10:55:05.473Z,33.50
2018-05-15T10:57:34.265Z,35.20
2018-05-15T11:00:03.219Z,35.20
2018-05-15T11:02:36.905Z,34.90
2018-05-15T11:05:09.881Z,33.10
2018-05-15T11:07:37.909Z,30.00
2018-05-15T11:10:20.805Z,29.20
2018-05-15T11:12:51.641Z,30.90
2018-05-15T11:15:28.385Z,31.40
2018-05-15T11:18:14.337Z,31.40
2018-05-15T11:20:58.333Z,32.00
2018-05-15T11:23:40.279Z,32.20
2018-05-15T11:26:16.133Z,33.30
2018-05-15T11:28:59.897Z,34.00
2018-05-15T11:31:33.174Z,34.20
2018-05-15T11:34:04.993Z,33.70
2018-05-15T11:36:35.772Z,32.40
2018-05-15T11:39:08.417Z,32.40
2018-05-15T11:41:50.725Z,30.50
2018-05-15T11:44:18.664Z,30.00
2018-05-15T11:46:46.680Z,28.50
2018-05-15T11:49:15.412Z,27.90
2018-05-15T11:51:48.488Z,27.30
2018-05-15T11:54:15.868Z,25.80
2018-05-15T11:56:48.201Z,24.50
2018-05-15T11:59:21.856Z,22.70
2018-05-15T12:01:54.521Z,25.70
2018-05-15T12:04:28.094Z,25.70
2018-05-15T12:06:56.159Z,26.10
2018-05-15T12:09:30.261Z,24.60
2018-05-15T12:12:14.786Z,24.10
2018-05-15T12:14:43.770Z,23.80
2018-05-15T12:17:12.597Z,37.90
2018-05-15T12:19:40.862Z,37.70
2018-05-15T12:22:10.310Z,44.00
2018-05-15T12:24:38.369Z,47.40
2018-05-15T12:27:09.645Z,48.90
2018-05-15T12:29:39.437Z,46.90
2018-05-15T12:32:09.445Z,46.60
2018-05-15T12:34:37.465Z,46.90
2018-05-15T12:37:08.469Z,45.00
2018-05-15T12:39:36.497Z,44.60
2018-05-15T12:42:04.722Z,40.20
2018-05-15T12:44:34.441Z,44.50
2018-05-15T12:47:07.238Z,46.90
2018-05-15T12:49:36.176Z,47.00
2018-05-15T12:52:04.208Z,45.70
2018-05-15T12:54:38.049Z,43.10
2018-05-15T12:57:07.057Z,43.40
2018-05-15T12:59:35.073Z,42.70
2018-05-15T13:02:05.052Z,43.20
2018-05-15T13:04:39.660Z,42.40
2018-05-15T13:07:08.684Z,39.70
2018-05-15T13:09:41.470Z,38.30
2018-05-15T13:12:15.117Z,38.10
2018-05-15T13:14:44.140Z,38.00
2018-05-15T13:17:22.434Z,39.40
2018-05-15T13:19:56.236Z,42.80
2018-05-15T13:22:25.184Z,42.80
2018-05-15T13:24:54.124Z,42.60
2018-05-15T13:27:24.136Z,43.40
2018-05-15T13:29:53.271Z,43.20
2018-05-15T13:32:25.450Z,43.90
2018-05-15T13:34:59.340Z,43.90
2018-05-15T13:37:30.068Z,43.10
2018-05-15T13:39:58.117Z,42.70
2018-05-15T13:42:26.168Z,40.70
2018-05-15T13:44:57.236Z,40.10
2018-05-15T13:47:33.583Z,39.50
2018-05-15T13:50:06.584Z,39.60
2018-05-15T13:52:38.488Z,40.10
2018-05-15T13:55:06.520Z,38.40
2018-05-15T13:57:40.720Z,38.30
2018-05-15T14:00:15.259Z,36.90
2018-05-15T14:02:50.711Z,38.60
2018-05-15T14:05:20.509Z,38.10
2018-05-15T14:07:54.024Z,38.00
2018-05-15T14:10:27.591Z,35.80
2018-05-15T14:12:55.643Z,32.30
2018-05-15T14:15:40.616Z,31.30
2018-05-15T14:18:09.681Z,29.30
2018-05-15T14:20:39.673Z,29.40
2018-05-15T14:23:16.028Z,30.20
2018-05-15T14:25:47.880Z,31.40
2018-05-15T14:28:20.452Z,33.40
2018-05-15T14:31:14.112Z,34.80
2018-05-15T14:36:35.757Z,33.00
2018-05-15T14:39:04.682Z,31.90
2018-05-15T14:41:44.489Z,32.00
2018-05-15T14:47:12.872Z,34.20
2018-05-15T14:49:45.919Z,36.10
2018-05-15T14:52:15.928Z,36.10
2018-05-15T14:54:54.980Z,33.70
2018-05-15T14:57:27.911Z,33.60
2018-05-15T14:59:55.852Z,36.60
2018-05-15T15:02:27.448Z,38.70
2018-05-15T15:05:00.355Z,38.30
2018-05-15T15:07:32.011Z,38.20
2018-05-15T15:10:07.744Z,36.50
2018-05-15T15:12:38.451Z,35.20
2018-05-15T15:15:16.995Z,35.20
2018-05-15T15:17:46.995Z,36.10
2018-05-15T15:20:15.035Z,35.00
2018-05-15T15:22:43.085Z,33.60
2018-05-15T15:25:12.039Z,32.30
2018-05-15T15:27:41.723Z,34.30
2018-05-15T15:30:15.267Z,34.30
2018-05-15T15:32:48.823Z,35.90
2018-05-15T15:35:34.855Z,37.20
2018-05-15T15:38:08.415Z,37.20
2018-05-15T15:40:48.923Z,35.70
2018-05-15T15:43:16.943Z,36.30
2018-05-15T15:45:46.981Z,36.80
2018-05-15T15:48:15.051Z,38.40
2018-05-15T15:50:59.950Z,38.40
2018-05-15T15:53:33.607Z,38.50
2018-05-15T15:56:04.547Z,40.10
2018-05-15T15:58:32.599Z,41.20
2018-05-15T16:01:02.655Z,42.30
2018-05-15T16:03:31.571Z,43.60
2018-05-15T16:06:01.543Z,43.90
2018-05-15T16:08:29.607Z,44.70
2018-05-15T16:10:57.651Z,45.50
2018-05-15T16:13:27.567Z,45.60
2018-05-15T16:15:55.610Z,45.60
2018-05-15T16:18:25.571Z,46.30
2018-05-15T16:20:57.983Z,47.40
2018-05-15T16:23:27.775Z,48.40
2018-05-15T16:25:57.884Z,48.80
2018-05-15T16:28:26.879Z,48.50
2018-05-15T16:30:55.879Z,48.50
2018-05-15T16:33:32.435Z,47.60
2018-05-15T16:36:00.459Z,47.90
2018-05-15T16:38:30.375Z,46.50
2018-05-15T16:41:12.666Z,44.90
2018-05-15T16:43:40.691Z,44.60
2018-05-15T16:46:10.630Z,44.60
2018-05-15T16:48:39.458Z,45.30
2018-05-15T16:51:07.515Z,45.30
2018-05-15T16:53:40.899Z,44.20
2018-05-15T16:56:15.291Z,44.90
2018-05-15T16:58:48.396Z,46.00
2018-05-15T17:01:16.386Z,46.80
2018-05-15T17:03:45.450Z,47.80
2018-05-15T17:06:16.158Z,48.00
2018-05-15T17:08:44.203Z,48.00
2018-05-15T17:11:13.174Z,48.30
2018-05-15T17:13:42.283Z,48.50
2018-05-15T17:16:20.599Z,48.60
2018-05-15T17:19:10.445Z,48.80
2018-05-15T17:21:42.194Z,48.80
2018-05-15T17:24:12.938Z,49.40
2018-05-15T17:26:40.982Z,49.30
2018-05-15T17:29:09.018Z,49.10
2018-05-15T17:31:39.034Z,48.40
2018-05-15T17:34:08.930Z,48.40
2018-05-15T17:36:43.418Z,47.60
2018-05-15T17:39:11.506Z,47.40
2018-05-15T17:41:40.446Z,48.10
2018-05-15T17:47:02.427Z,52.00
2018-05-15T17:49:41.572Z,53.50
2018-05-15T17:52:13.693Z,53.50
2018-05-15T17:54:43.753Z,55.00
2018-05-15T17:57:13.522Z,57.60
2018-05-15T17:59:44.234Z,59.60
2018-05-15T18:02:24.158Z,59.60
2018-05-15T18:04:59.914Z,63.20
2018-05-15T18:07:37.654Z,68.20
2018-05-15T18:10:13.470Z,74.00
2018-05-15T18:12:43.409Z,79.80
2018-05-15T18:15:11.445Z,85.30
2018-05-15T18:17:41.298Z,92.90
2018-05-15T18:20:12.961Z,92.90
2018-05-15T18:22:41.224Z,95.20
2018-05-15T18:25:09.254Z,96.90
2018-05-15T18:27:42.618Z,97.90
2018-05-15T18:30:12.370Z,99.90
2018-05-15T18:32:40.402Z,99.90
2018-05-15T18:35:09.214Z,99.90
2018-05-15T18:37:38.283Z,99.90
2018-05-15T18:40:07.118Z,99.90
2018-05-15T18:42:36.205Z,99.90
2018-05-15T18:45:05.254Z,99.90
2018-05-15T18:47:35.294Z,99.90
2018-05-15T18:50:03.332Z,99.90
2018-05-15T18:52:32.346Z,99.90
2018-05-15T18:55:01.210Z,99.90
2018-05-15T18:57:29.242Z,99.90
2018-05-15T19:00:05.407Z,99.90
2018-05-15T19:02:41.030Z,99.90
2018-05-15T19:13:56.752Z,99.90
2018-05-15T19:16:37.374Z,99.90
2018-05-15T19:19:09.104Z,99.90
2018-05-15T19:21:39.051Z,99.90
2018-05-15T19:24:10.971Z,99.90
2018-05-15T19:26:46.496Z,99.90
2018-05-15T19:29:16.458Z,99.90
2018-05-15T19:31:52.483Z,99.90
2018-05-15T19:34:32.561Z,99.90
2018-05-15T19:37:12.842Z,99.90
2018-05-15T19:39:43.760Z,99.90
2018-05-15T19:42:15.684Z,99.90
2018-05-15T19:45:00.751Z,99.90
2018-05-15T19:47:34.486Z,99.90
2018-05-15T19:50:16.338Z,99.90
2018-05-15T19:52:50.342Z,99.90
2018-05-15T19:55:19.322Z,99.90
2018-05-15T19:57:51.268Z,99.90
2018-05-15T20:00:22.366Z,99.90
2018-05-15T20:02:50.491Z,99.90
2018-05-15T20:05:18.550Z,99.90
2018-05-15T20:07:51.847Z,99.90
2018-05-15T20:10:26.418Z,99.90
2018-05-15T20:12:59.736Z,99.90
2018-05-15T20:15:33.539Z,99.90
2018-05-15T20:18:07.230Z,99.90
2018-05-15T20:20:38.774Z,99.90
2018-05-15T20:23:18.310Z,99.90
2018-05-15T20:25:52.929Z,99.90
2018-05-15T20:28:21.109Z,99.90
2018-05-15T20:30:49.162Z,99.90
2018-05-15T20:33:18.182Z,99.90
2018-05-15T20:35:48.138Z,99.90
2018-05-15T20:38:18.447Z,99.90
2018-05-15T20:40:48.538Z,99.90
2018-05-15T20:43:28.974Z,99.90
2018-05-15T20:45:59.014Z,99.90
2018-05-15T20:48:29.454Z,99.90
2018-05-15T20:51:02.114Z,99.90
2018-05-15T20:53:31.139Z,99.90
2018-05-15T20:56:00.154Z,99.90
2018-05-15T20:58:31.625Z,99.90
2018-05-15T21:01:00.418Z,99.90
2018-05-15T21:03:28.738Z,99.90
2018-05-15T21:05:57.754Z,99.90
2018-05-15T21:08:26.814Z,99.90
2018-05-15T21:10:55.002Z,99.90
2018-05-15T21:13:30.658Z,99.90
2018-05-15T21:16:01.614Z,99.90
2018-05-15T21:18:30.666Z,99.90
2018-05-15T21:21:11.638Z,99.90
2018-05-15T21:26:34.835Z,99.90
2018-05-15T21:29:03.778Z,99.90
2018-05-15T21:31:32.734Z,99.90
2018-05-15T21:34:00.837Z,99.90
2018-05-15T21:36:39.304Z,99.90
2018-05-15T21:39:13.194Z,99.90
2018-05-15T21:41:42.289Z,99.90
2018-05-15T21:44:12.110Z,99.90
2018-05-15T21:46:44.862Z,99.90
2018-05-15T21:49:33.538Z,99.90
2018-05-15T21:52:01.730Z,99.90
2018-05-15T21:54:30.766Z,99.90
2018-05-15T21:57:01.547Z,99.90
2018-05-15T21:59:29.607Z,99.90
2018-05-15T22:01:58.668Z,99.90
2018-05-15T22:04:30.814Z,99.90
2018-05-15T22:07:09.277Z,99.90
2018-05-15T22:09:38.606Z,99.90
2018-05-15T22:12:18.577Z,99.90
2018-05-15T22:15:00.569Z,99.90
2018-05-15T22:17:41.609Z,99.90
2018-05-15T22:20:23.850Z,99.90
2018-05-15T22:22:53.394Z,99.90
2018-05-15T22:25:25.674Z,99.90
2018-05-15T22:27:53.743Z,99.90
2018-05-15T22:30:21.790Z,99.90
2018-05-15T22:32:53.678Z,99.90
2018-05-15T22:35:29.218Z,99.90
2018-05-15T22:37:58.718Z,99.90
2018-05-15T22:40:28.735Z,99.90
2018-05-15T22:43:00.637Z,99.90
2018-05-15T22:45:28.665Z,99.90
2018-05-15T22:48:01.131Z,99.90
2018-05-15T22:50:31.174Z,99.90
2018-05-15T22:53:13.793Z,99.90
2018-05-15T22:55:46.961Z,99.90
2018-05-15T22:58:15.002Z,99.90
2018-05-15T23:00:45.697Z,99.90
2018-05-15T23:03:19.006Z,99.90
2018-05-15T23:05:52.926Z,99.90
2018-05-15T23:08:31.209Z,99.90
2018-05-15T23:10:59.244Z,99.90
2018-05-15T23:13:28.162Z,99.90
2018-05-15T23:15:58.982Z,99.90
2018-05-15T23:18:30.394Z,99.90
2018-05-15T23:20:59.226Z,99.90
2018-05-15T23:23:37.369Z,99.90
2018-05-15T23:26:05.437Z,99.90
2018-05-15T23:28:34.478Z,99.90
2018-05-15T23:31:12.837Z,99.90
2018-05-15T23:33:52.530Z,99.90
2018-05-15T23:39:14.786Z,99.90
2018-05-15T23:41:54.497Z,99.90
2018-05-15T23:44:29.413Z,99.90
2018-05-15T23:47:00.469Z,99.90
2018-05-15T23:49:34.761Z,99.90
2018-05-15T23:52:05.933Z,99.90
2018-05-15T23:54:34.749Z,99.90
2018-05-15T23:57:13.097Z,99.90
2018-05-15T23:59:53.025Z,99.90
